createdAt,value
2024-03-09T00:02:33.973Z,13.00
2024-03-09T00:05:14.951Z,8.10
2024-03-09T00:08:09.473Z,12.20
2024-03-09T00:11:18.803Z,13.00
2024-03-09T00:14:28.127Z,9.80
2024-03-09T00:18:00.433Z,12.00
2024-03-09T00:20:53.661Z,10.00
2024-03-09T00:24:00.382Z,9.90
2024-03-09T00:27:26.105Z,8.70
2024-03-09T00:30:29.289Z,9.80
2024-03-09T00:33:47.462Z,9.90
2024-03-09T00:36:39.769Z,9.30
2024-03-09T00:40:19.011Z,9.20
2024-03-09T00:43:10.921Z,9.90
2024-03-09T00:46:29.911Z,9.30
2024-03-09T00:49:52.185Z,11.40
2024-03-09T00:52:27.167Z,11.90
2024-03-09T00:55:20.505Z,9.70
2024-03-09T00:58:02.509Z,11.70
2024-03-09T01:00:47.812Z,15.10
2024-03-09T01:03:36.714Z,17.60
2024-03-09T01:06:09.053Z,14.70
2024-03-09T01:09:09.413Z,15.60
2024-03-09T01:12:08.559Z,11.40
2024-03-09T01:14:37.457Z,10.20
2024-03-09T01:17:51.802Z,13.20
2024-03-09T01:20:43.364Z,12.10
2024-03-09T01:24:12.319Z,11.10
2024-03-09T01:26:42.214Z,10.80
2024-03-09T01:29:26.592Z,9.40
2024-03-09T01:32:07.215Z,11.00
2024-03-09T01:34:39.243Z,12.60
2024-03-09T01:38:07.273Z,10.70
2024-03-09T01:40:56.080Z,16.20
2024-03-09T01:43:58.285Z,16.60
2024-03-09T01:47:30.637Z,14.40
2024-03-09T01:50:16.915Z,18.30
2024-03-09T01:53:09.417Z,19.30
2024-03-09T01:55:51.082Z,17.70
2024-03-09T01:58:55.299Z,17.80
2024-03-09T02:02:09.873Z,14.70
2024-03-09T02:05:19.493Z,14.00
2024-03-09T02:08:08.670Z,15.60
2024-03-09T02:11:07.181Z,18.50
2024-03-09T02:14:25.712Z,13.50
2024-03-09T02:17:19.106Z,16.20
2024-03-09T02:20:02.120Z,13.60
2024-03-09T02:22:36.604Z,15.90
2024-03-09T02:25:41.560Z,15.70
2024-03-09T02:28:24.831Z,16.20
2024-03-09T02:31:04.203Z,17.30
2024-03-09T02:33:36.217Z,23.80
2024-03-09T02:36:49.549Z,22.90
2024-03-09T02:40:34.493Z,21.90
2024-03-09T02:43:09.832Z,25.10
2024-03-09T02:45:51.160Z,25.80
2024-03-09T02:49:02.398Z,25.10
2024-03-09T02:52:10.591Z,21.50
2024-03-09T02:55:06.177Z,23.90
2024-03-09T02:57:35.127Z,23.20
2024-03-09T03:01:24.252Z,19.70
2024-03-09T03:05:13.500Z,16.50
2024-03-09T03:08:16.219Z,18.90
2024-03-09T03:12:05.464Z,11.80
2024-03-09T03:15:05.537Z,12.80
2024-03-09T03:17:59.614Z,12.80
2024-03-09T03:21:37.721Z,16.60
2024-03-09T03:24:27.060Z,15.00
2024-03-09T03:27:59.169Z,16.60
2024-03-09T03:31:10.228Z,9.70
2024-03-09T03:34:22.684Z,8.80
2024-03-09T03:37:42.997Z,11.80
2024-03-09T03:40:34.843Z,7.50
2024-03-09T03:44:15.640Z,8.50
2024-03-09T03:47:00.701Z,11.10
2024-03-09T03:50:12.088Z,11.50
2024-03-09T03:53:13.392Z,13.20
2024-03-09T03:56:40.856Z,26.40
2024-03-09T03:59:30.862Z,20.30
2024-03-09T04:02:34.459Z,19.90
2024-03-09T04:05:34.646Z,12.90
2024-03-09T04:08:31.956Z,11.00
2024-03-09T04:12:11.806Z,13.60
2024-03-09T04:15:01.590Z,14.00
2024-03-09T04:18:13.583Z,19.40
2024-03-09T04:24:25.302Z,18.80
2024-03-09T04:28:14.500Z,22.80
2024-03-09T04:31:45.564Z,24.90
2024-03-09T04:34:27.425Z,22.50
2024-03-09T04:38:01.974Z,13.50
2024-03-09T04:41:32.739Z,13.20
2024-03-09T04:44:47.190Z,11.60
2024-03-09T04:50:53.980Z,24.00
2024-03-09T04:54:21.327Z,18.80
2024-03-09T04:57:40.071Z,16.90
2024-03-09T05:01:00.109Z,11.20
2024-03-09T05:04:38.593Z,22.30
2024-03-09T05:07:43.071Z,23.70
2024-03-09T05:10:55.126Z,26.60
2024-03-09T05:13:50.910Z,24.60
2024-03-09T05:17:09.498Z,19.80
2024-03-09T05:20:21.580Z,16.10
2024-03-09T05:24:00.817Z,32.10
2024-03-09T05:27:22.275Z,19.40
2024-03-09T05:30:51.365Z,17.10
2024-03-09T05:33:43.372Z,28.70
2024-03-09T05:36:56.537Z,31.90
2024-03-09T05:40:06.467Z,28.70
2024-03-09T05:43:09.809Z,28.80
2024-03-09T05:46:33.729Z,42.80
2024-03-09T05:50:12.630Z,67.30
2024-03-09T05:53:27.677Z,62.10
2024-03-09T05:56:56.943Z,57.80
2024-03-09T05:59:48.900Z,50.20
2024-03-09T06:02:46.371Z,52.90
2024-03-09T06:05:39.059Z,33.90
2024-03-09T06:08:31.100Z,27.00
2024-03-09T06:11:36.419Z,19.10
2024-03-09T06:15:18.785Z,13.70
2024-03-09T06:18:26.419Z,14.10
2024-03-09T06:21:23.405Z,12.80
2024-03-09T06:26:35.338Z,13.50
2024-03-09T06:29:11.654Z,13.60
2024-03-09T06:31:44.647Z,13.70
2024-03-09T06:34:16.793Z,14.50
2024-03-09T06:36:56.686Z,12.70
2024-03-09T06:40:06.197Z,15.40
2024-03-09T06:42:59.461Z,15.30
2024-03-09T06:45:31.032Z,13.60
2024-03-09T06:48:24.911Z,14.40
2024-03-09T06:51:00.272Z,14.50
2024-03-09T06:53:43.253Z,14.10
2024-03-09T06:56:16.368Z,15.10
2024-03-09T06:59:08.354Z,15.80
2024-03-09T07:01:40.209Z,14.80
2024-03-09T07:04:22.585Z,15.00
2024-03-09T07:07:04.750Z,12.30
2024-03-09T07:09:53.446Z,13.30
2024-03-09T07:12:44.864Z,10.80
2024-03-09T07:15:34.147Z,12.00
2024-03-09T07:18:25.774Z,12.70
2024-03-09T07:21:24.697Z,11.70
2024-03-09T07:24:07.673Z,9.00
2024-03-09T07:26:58.934Z,10.90
2024-03-09T07:29:36.588Z,10.20
2024-03-09T07:32:10.644Z,12.30
2024-03-09T07:35:15.738Z,12.10
2024-03-09T07:38:01.073Z,9.10
2024-03-09T07:41:10.845Z,9.60
2024-03-09T07:43:51.576Z,8.20
2024-03-09T07:46:23.630Z,8.00
2024-03-09T07:48:52.540Z,7.40
2024-03-09T07:51:21.393Z,11.70
2024-03-09T07:54:22.183Z,7.80
2024-03-09T07:57:12.781Z,9.20
2024-03-09T07:59:41.852Z,10.00
2024-03-09T08:02:15.210Z,8.70
2024-03-09T08:04:55.687Z,7.30
2024-03-09T08:07:27.336Z,8.90
2024-03-09T08:09:56.055Z,8.20
2024-03-09T08:12:50.655Z,7.50
2024-03-09T08:15:25.145Z,10.60
2024-03-09T08:18:02.916Z,9.60
2024-03-09T08:20:51.586Z,10.30
2024-03-09T08:23:24.874Z,8.90
2024-03-09T08:25:54.254Z,8.60
2024-03-09T08:28:25.745Z,8.30
2024-03-09T08:31:14.908Z,8.80
2024-03-09T08:33:44.673Z,8.90
2024-03-09T08:36:38.521Z,9.70
2024-03-09T08:39:27.343Z,10.40
2024-03-09T08:42:29.501Z,10.80
2024-03-09T08:45:42.159Z,10.70
2024-03-09T08:48:13.551Z,8.60
2024-03-09T08:50:45.169Z,5.40
2024-03-09T08:53:18.534Z,6.80
2024-03-09T08:55:57.455Z,7.20
2024-03-09T08:58:26.019Z,8.40
2024-03-09T09:00:54.905Z,7.40
2024-03-09T09:03:24.756Z,7.20
2024-03-09T09:05:56.731Z,7.50
2024-03-09T09:08:27.864Z,8.70
2024-03-09T09:10:57.048Z,6.00
2024-03-09T09:13:28.733Z,6.00
2024-03-09T09:15:57.304Z,7.00
2024-03-09T09:18:28.388Z,7.40
2024-03-09T09:20:56.915Z,6.70
2024-03-09T09:23:25.561Z,6.20
2024-03-09T09:26:02.502Z,6.90
2024-03-09T09:28:31.242Z,6.60
2024-03-09T09:30:59.747Z,5.70
2024-03-09T09:33:31.111Z,6.70
2024-03-09T09:36:02.854Z,6.50
2024-03-09T09:38:32.630Z,7.70
2024-03-09T09:41:01.241Z,6.80
2024-03-09T09:43:30.234Z,6.20
2024-03-09T09:46:03.530Z,4.80
2024-03-09T09:48:42.227Z,4.10
2024-03-09T09:51:12.630Z,5.10
2024-03-09T09:53:43.546Z,6.10
2024-03-09T09:56:12.029Z,5.10
2024-03-09T09:58:40.877Z,4.50
2024-03-09T10:01:09.600Z,4.00
2024-03-09T10:03:38.117Z,3.60
2024-03-09T10:06:19.817Z,3.10
2024-03-09T10:08:49.583Z,3.30
2024-03-09T10:11:19.268Z,4.00
2024-03-09T10:13:49.345Z,4.30
2024-03-09T10:16:18.669Z,4.70
2024-03-09T10:18:50.664Z,3.70
2024-03-09T10:21:28.113Z,2.70
2024-03-09T10:24:07.208Z,3.60
2024-03-09T10:26:37.392Z,3.10
2024-03-09T10:29:06.065Z,4.20
2024-03-09T10:31:37.253Z,3.10
2024-03-09T10:34:09.800Z,3.10
2024-03-09T10:36:39.189Z,4.00
2024-03-09T10:39:11.185Z,2.60
2024-03-09T10:41:41.929Z,2.70
2024-03-09T10:44:11.827Z,3.00
2024-03-09T10:46:44.856Z,3.50
2024-03-09T10:49:14.018Z,2.80
2024-03-09T10:51:55.803Z,3.80
2024-03-09T10:54:44.649Z,4.20
2024-03-09T10:57:23.051Z,3.40
2024-03-09T10:59:53.229Z,3.20
2024-03-09T11:02:21.996Z,2.90
2024-03-09T11:04:54.010Z,3.60
2024-03-09T11:07:23.923Z,2.60
2024-03-09T11:09:55.104Z,3.80
2024-03-09T11:12:23.932Z,7.00
2024-03-09T11:14:53.734Z,3.30
2024-03-09T11:17:23.453Z,4.40
2024-03-09T11:19:57.499Z,4.40
2024-03-09T11:22:42.840Z,4.00
2024-03-09T11:25:14.015Z,23.80
2024-03-09T11:27:47.167Z,5.90
2024-03-09T11:30:18.361Z,3.10
2024-03-09T11:32:48.027Z,3.20
2024-03-09T11:35:33.841Z,4.40
2024-03-09T11:38:13.407Z,3.30
2024-03-09T11:40:42.055Z,3.90
2024-03-09T11:43:15.980Z,3.10
2024-03-09T11:45:46.667Z,3.40
2024-03-09T11:48:15.062Z,3.30
2024-03-09T11:50:43.341Z,5.00
2024-03-09T11:53:11.599Z,3.30
2024-03-09T11:55:40.225Z,4.30
2024-03-09T11:58:08.903Z,3.40
2024-03-09T12:00:37.381Z,3.40
2024-03-09T12:03:16.436Z,3.20
2024-03-09T12:05:44.974Z,3.40
2024-03-09T12:08:14.097Z,3.70
2024-03-09T12:10:44.054Z,3.30
2024-03-09T12:13:13.360Z,5.50
2024-03-09T12:15:43.128Z,3.40
2024-03-09T12:18:13.295Z,4.00
2024-03-09T12:20:43.594Z,4.20
2024-03-09T12:23:13.365Z,4.70
2024-03-09T12:25:43.120Z,4.30
2024-03-09T12:28:11.647Z,4.50
2024-03-09T12:30:40.623Z,3.90
2024-03-09T12:33:11.863Z,4.20
2024-03-09T12:35:43.677Z,4.10
2024-03-09T12:38:16.294Z,4.10
2024-03-09T12:40:48.665Z,4.00
2024-03-09T12:43:17.295Z,3.20
2024-03-09T12:45:53.548Z,4.10
2024-03-09T12:48:25.181Z,5.50
2024-03-09T12:50:56.786Z,4.30
2024-03-09T12:53:25.708Z,3.90
2024-03-09T12:55:54.109Z,3.90
2024-03-09T12:58:22.895Z,2.90
2024-03-09T13:00:55.385Z,2.90
2024-03-09T13:03:25.429Z,3.50
2024-03-09T13:05:53.938Z,4.60
2024-03-09T13:08:27.663Z,3.80
2024-03-09T13:10:56.876Z,3.70
2024-03-09T13:13:25.097Z,4.60
2024-03-09T13:15:55.775Z,3.40
2024-03-09T13:18:25.336Z,3.50
2024-03-09T13:20:54.674Z,4.00
2024-03-09T13:23:23.302Z,3.60
2024-03-09T13:25:52.555Z,3.80
2024-03-09T13:28:20.905Z,7.00
2024-03-09T13:30:49.537Z,3.80
2024-03-09T13:33:18.200Z,3.00
2024-03-09T13:35:46.796Z,4.00
2024-03-09T13:38:15.172Z,3.20
2024-03-09T13:40:43.654Z,3.40
2024-03-09T13:43:13.625Z,3.30
2024-03-09T13:45:42.504Z,4.20
2024-03-09T13:48:12.720Z,15.50
2024-03-09T13:50:41.906Z,8.20
2024-03-09T13:53:10.339Z,6.10
2024-03-09T13:55:40.545Z,3.60
2024-03-09T13:58:09.091Z,4.20
2024-03-09T14:00:37.618Z,8.40
2024-03-09T14:03:08.552Z,5.70
2024-03-09T14:05:37.683Z,3.50
2024-03-09T14:08:09.622Z,4.40
2024-03-09T14:10:40.791Z,4.00
2024-03-09T14:13:10.126Z,9.20
2024-03-09T14:15:39.157Z,4.10
2024-03-09T14:18:15.685Z,4.60
2024-03-09T14:20:44.472Z,6.00
2024-03-09T14:23:18.091Z,4.80
2024-03-09T14:25:46.569Z,9.90
2024-03-09T14:28:15.463Z,52.60
2024-03-09T14:30:44.037Z,14.10
2024-03-09T14:33:16.733Z,6.50
2024-03-09T14:35:46.417Z,6.40
2024-03-09T14:38:15.803Z,5.90
2024-03-09T14:40:44.367Z,5.40
2024-03-09T14:43:14.246Z,6.00
2024-03-09T14:45:42.838Z,5.90
2024-03-09T14:48:16.616Z,11.50
2024-03-09T14:50:45.533Z,11.90
2024-03-09T14:53:17.180Z,9.20
2024-03-09T14:55:46.758Z,7.60
2024-03-09T14:58:17.626Z,9.90
2024-03-09T15:00:46.141Z,6.00
2024-03-09T15:03:30.239Z,7.40
2024-03-09T15:06:00.213Z,9.60
2024-03-09T15:08:29.635Z,5.60
2024-03-09T15:11:02.621Z,8.10
2024-03-09T15:13:42.086Z,7.30
2024-03-09T15:16:13.607Z,11.00
2024-03-09T15:18:42.202Z,6.90
2024-03-09T15:21:11.186Z,8.20
2024-03-09T15:23:41.005Z,10.20
2024-03-09T15:26:10.550Z,22.00
2024-03-09T15:28:42.572Z,7.40
2024-03-09T15:31:12.355Z,8.60
2024-03-09T15:33:42.345Z,9.70
2024-03-09T15:36:12.656Z,11.00
2024-03-09T15:38:43.620Z,9.50
2024-03-09T15:41:15.357Z,11.50
2024-03-09T15:43:45.113Z,22.90
2024-03-09T15:46:13.974Z,39.90
2024-03-09T15:48:42.825Z,20.40
2024-03-09T15:51:13.999Z,16.10
2024-03-09T15:53:43.120Z,5.70
2024-03-09T15:56:12.774Z,7.20
2024-03-09T15:58:42.375Z,6.40
2024-03-09T16:01:17.306Z,5.10
2024-03-09T16:03:46.284Z,6.20
2024-03-09T16:06:18.029Z,9.20
2024-03-09T16:08:46.925Z,7.90
2024-03-09T16:11:15.396Z,8.10
2024-03-09T16:13:44.292Z,7.80
2024-03-09T16:16:25.251Z,11.40
2024-03-09T16:18:53.794Z,6.50
2024-03-09T16:21:22.594Z,9.70
2024-03-09T16:23:55.240Z,9.60
2024-03-09T16:26:24.140Z,5.20
2024-03-09T16:28:52.572Z,5.80
2024-03-09T16:31:24.537Z,8.10
2024-03-09T16:33:55.509Z,7.40
2024-03-09T16:36:23.902Z,6.50
2024-03-09T16:38:52.499Z,8.80
2024-03-09T16:41:24.728Z,8.80
2024-03-09T16:43:57.189Z,11.10
2024-03-09T16:46:26.976Z,9.50
2024-03-09T16:49:13.214Z,10.20
2024-03-09T16:51:53.240Z,10.30
2024-03-09T16:54:22.023Z,10.90
2024-03-09T16:57:01.541Z,11.10
2024-03-09T16:59:52.654Z,12.60
2024-03-09T17:02:24.483Z,10.90
2024-03-09T17:05:15.668Z,11.80
2024-03-09T17:07:44.342Z,10.50
2024-03-09T17:10:17.187Z,11.00
2024-03-09T17:12:53.378Z,15.80
2024-03-09T17:15:24.184Z,15.00
2024-03-09T17:18:23.672Z,12.70
2024-03-09T17:21:07.363Z,9.60
2024-03-09T17:23:58.580Z,11.10
2024-03-09T17:26:33.646Z,11.10
2024-03-09T17:29:22.360Z,9.90
2024-03-09T17:31:55.365Z,9.80
2024-03-09T17:34:24.461Z,8.40
2024-03-09T17:36:56.392Z,11.80
2024-03-09T17:39:28.813Z,8.60
2024-03-09T17:44:48.019Z,9.90
2024-03-09T17:47:39.861Z,9.00
2024-03-09T17:50:15.592Z,14.60
2024-03-09T17:53:06.684Z,9.90
2024-03-09T17:55:59.845Z,11.40
2024-03-09T17:58:29.811Z,11.50
2024-03-09T18:00:58.794Z,10.30
2024-03-09T18:03:30.660Z,13.90
2024-03-09T18:06:02.665Z,11.50
2024-03-09T18:08:33.502Z,9.90
2024-03-09T18:12:02.555Z,8.90
2024-03-09T18:14:34.721Z,12.60
2024-03-09T18:17:08.605Z,10.30
2024-03-09T18:19:46.149Z,10.00
2024-03-09T18:22:17.695Z,9.10
2024-03-09T18:24:53.644Z,10.50
2024-03-09T18:27:53.731Z,12.00
2024-03-09T18:30:33.119Z,7.70
2024-03-09T18:33:14.420Z,10.00
2024-03-09T18:36:33.914Z,10.10
2024-03-09T18:39:05.257Z,11.10
2024-03-09T18:41:53.915Z,8.50
2024-03-09T18:45:05.801Z,11.40
2024-03-09T18:47:38.145Z,8.30
2024-03-09T18:50:41.326Z,8.10
2024-03-09T18:53:19.355Z,7.70
2024-03-09T18:56:34.211Z,9.60
2024-03-09T18:59:45.595Z,9.70
2024-03-09T19:02:17.418Z,10.90
2024-03-09T19:05:06.806Z,5.90
2024-03-09T19:08:19.163Z,5.90
2024-03-09T19:10:47.921Z,8.10
2024-03-09T19:13:28.935Z,7.10
2024-03-09T19:16:48.876Z,11.90
2024-03-09T19:19:27.865Z,8.00
2024-03-09T19:22:47.051Z,6.90
2024-03-09T19:25:17.192Z,8.20
2024-03-09T19:28:09.418Z,6.90
2024-03-09T19:31:01.318Z,11.20
2024-03-09T19:33:53.724Z,9.80
2024-03-09T19:36:58.835Z,8.40
2024-03-09T19:39:50.835Z,7.70
2024-03-09T19:42:32.401Z,8.80
2024-03-09T19:45:06.864Z,7.50
2024-03-09T19:47:58.473Z,8.60
2024-03-09T19:50:37.728Z,10.00
2024-03-09T19:53:35.812Z,8.60
2024-03-09T19:56:25.266Z,9.30
2024-03-09T19:59:02.199Z,12.60
2024-03-09T20:01:38.372Z,11.10
2024-03-09T20:04:39.039Z,11.50
2024-03-09T20:07:37.593Z,11.30
2024-03-09T20:10:29.089Z,9.60
2024-03-09T20:13:23.637Z,8.70
2024-03-09T20:16:15.597Z,8.10
2024-03-09T20:18:46.822Z,8.00
2024-03-09T20:22:03.224Z,8.00
2024-03-09T20:25:11.320Z,7.80
2024-03-09T20:28:18.845Z,9.70
2024-03-09T20:31:33.209Z,6.90
2024-03-09T20:34:07.576Z,8.40
2024-03-09T20:37:18.964Z,8.30
2024-03-09T20:40:01.183Z,8.00
2024-03-09T20:43:13.654Z,7.00
2024-03-09T20:45:55.340Z,8.20
2024-03-09T20:48:51.616Z,7.30
2024-03-09T20:52:06.419Z,7.80
2024-03-09T20:55:30.254Z,6.70
2024-03-09T20:58:37.298Z,7.80
2024-03-09T21:01:51.676Z,6.90
2024-03-09T21:05:44.136Z,5.80
2024-03-09T21:08:33.153Z,6.60
2024-03-09T21:11:43.154Z,6.60
2024-03-09T21:14:15.180Z,6.60
2024-03-09T21:17:09.759Z,6.50
2024-03-09T21:19:45.962Z,5.40
2024-03-09T21:22:18.511Z,6.00
2024-03-09T21:24:51.691Z,5.80
2024-03-09T21:27:22.370Z,5.50
2024-03-09T21:30:16.220Z,5.80
2024-03-09T21:32:48.782Z,5.90
2024-03-09T21:35:43.414Z,6.20
2024-03-09T21:38:14.528Z,4.80
2024-03-09T21:41:17.034Z,4.00
2024-03-09T21:44:09.783Z,5.40
2024-03-09T21:46:41.933Z,5.10
2024-03-09T21:49:44.240Z,6.40
2024-03-09T21:52:35.418Z,5.40
2024-03-09T21:55:47.258Z,8.20
2024-03-09T21:58:38.882Z,6.40
2024-03-09T22:01:50.805Z,7.70
2024-03-09T22:04:22.323Z,5.30
2024-03-09T22:07:31.491Z,5.90
2024-03-09T22:10:22.991Z,11.50
2024-03-09T22:13:15.163Z,6.10
2024-03-09T22:16:23.520Z,6.20
2024-03-09T22:19:18.769Z,7.30
2024-03-09T22:22:13.764Z,6.00
2024-03-09T22:25:26.871Z,5.30
2024-03-09T22:28:56.744Z,5.60
2024-03-09T22:31:31.470Z,6.00
2024-03-09T22:34:09.653Z,6.10
2024-03-09T22:37:14.694Z,4.20
2024-03-09T22:40:26.945Z,6.70
2024-03-09T22:43:04.655Z,6.90
2024-03-09T22:45:57.086Z,7.60
2024-03-09T22:48:59.897Z,14.00
2024-03-09T22:51:42.862Z,6.20
2024-03-09T22:54:41.574Z,6.60
2024-03-09T22:57:43.308Z,6.80
2024-03-09T23:00:20.322Z,5.60
2024-03-09T23:03:50.409Z,6.60
2024-03-09T23:10:05.178Z,7.30
2024-03-09T23:12:54.283Z,4.90
2024-03-09T23:15:44.077Z,7.00
2024-03-09T23:18:52.272Z,8.40
2024-03-09T23:21:27.035Z,5.90
2024-03-09T23:24:09.009Z,8.40
2024-03-09T23:26:58.535Z,6.70
2024-03-09T23:30:10.613Z,6.40
2024-03-09T23:33:08.215Z,6.00
2024-03-09T23:35:45.916Z,6.00
2024-03-09T23:38:42.872Z,7.70
2024-03-09T23:41:34.956Z,6.00
2024-03-09T23:44:23.168Z,7.50
2024-03-09T23:47:17.373Z,8.40
2024-03-09T23:50:14.406Z,8.20
2024-03-09T23:53:17.099Z,7.50
2024-03-09T23:56:12.120Z,7.00
2024-03-09T23:59:11.119Z,6.50
